Time;durP1;ratioP1;P1;durP2;ratioP2;P2;SDS_P1;SDS_P2;PMS_P1;PMS_P2;Temp;Humidity;BMP_temperature;BMP_pressure;BME280_temperature;BME280_humidity;BME280_pressure;Samples;Min_cycle;Max_cycle;Signal;HPM_P1;HPM_P2
2023/06/12 00:00:45;;;;;;;1999.90;999.90;;;;;;;18.18;100.00;97714.22;4979943;28;20026;-76
2023/06/12 00:03:12;;;;;;;1999.90;999.90;;;;;;;18.08;100.00;97709.16;5010820;28;20486;-77
2023/06/12 00:05:42;;;;;;;1999.90;999.90;;;;;;;18.03;100.00;97700.28;4993519;28;20026;-80
2023/06/12 00:08:08;;;;;;;1999.90;999.90;;;;;;;18.08;100.00;97705.56;5010664;28;20025;-78
2023/06/12 00:10:34;;;;;;;1999.90;999.90;;;;;;;18.06;100.00;97700.41;4986989;28;20034;-77
2023/06/12 00:12:59;;;;;;;1999.90;999.90;;;;;;;18.03;100.00;97697.53;4992390;28;20025;-78
2023/06/12 00:15:25;;;;;;;1999.90;999.90;;;;;;;18.00;100.00;97695.47;4973681;28;20168;-77
2023/06/12 00:17:50;;;;;;;1999.90;999.90;;;;;;;17.97;100.00;97694.22;4973616;28;20058;-78
2023/06/12 00:20:15;;;;;;;1999.90;999.90;;;;;;;17.95;100.00;97688.19;4989691;28;20114;-78
2023/06/12 00:22:41;;;;;;;1999.90;999.90;;;;;;;17.98;100.00;97690.25;4991310;28;20037;-78
2023/06/12 00:25:07;;;;;;;1999.90;999.90;;;;;;;17.97;100.00;97688.66;4991312;28;20042;-82
2023/06/12 00:27:33;;;;;;;1999.90;999.90;;;;;;;18.05;100.00;97690.47;4973885;28;20038;-78
2023/06/12 00:29:58;;;;;;;1999.90;999.90;;;;;;;18.05;100.00;97689.66;4991457;28;20034;-78
2023/06/12 00:32:23;;;;;;;1999.90;999.90;;;;;;;18.01;100.00;97695.09;4994217;28;20053;-79
2023/06/12 00:34:49;;;;;;;1999.90;999.90;;;;;;;17.89;100.00;97675.75;4986303;28;20053;-79
2023/06/12 00:37:17;;;;;;;1999.90;999.90;;;;;;;17.83;100.00;97682.69;4995728;28;20034;-79
2023/06/12 00:39:43;;;;;;;1999.90;999.90;;;;;;;17.71;100.00;97682.72;4977781;28;20054;-78
2023/06/12 00:42:09;;;;;;;1999.90;999.90;;;;;;;17.63;100.00;97689.19;4994775;28;20066;-80
2023/06/12 00:44:34;;;;;;;1999.90;999.90;;;;;;;17.52;100.00;97688.81;4977718;28;20108;-78
2023/06/12 00:47:00;;;;;;;1999.90;999.90;;;;;;;17.58;100.00;97675.59;4977884;28;20018;-78
2023/06/12 00:49:25;;;;;;;1999.90;999.90;;;;;;;17.62;100.00;97682.03;4978367;28;20062;-77
2023/06/12 00:51:52;;;;;;;1999.90;999.90;;;;;;;17.50;100.00;97687.56;4994852;28;20472;-78
2023/06/12 00:54:17;;;;;;;1999.90;999.90;;;;;;;17.48;100.00;97685.13;5013866;28;20084;-80
2023/06/12 00:56:44;;;;;;;1999.90;999.90;;;;;;;17.47;100.00;97679.97;5014487;28;20403;-78
2023/06/12 00:59:10;;;;;;;1999.90;999.90;;;;;;;17.52;100.00;97683.28;5014289;28;20046;-79
2023/06/12 01:01:36;;;;;;;1999.90;999.90;;;;;;;17.42;100.00;97677.41;5014367;28;20048;-80
2023/06/12 01:04:01;;;;;;;1999.90;999.90;;;;;;;17.35;100.00;97671.66;5014010;28;20539;-80
2023/06/12 01:06:39;;;;;;;1999.90;999.90;;;;;;;17.36;100.00;97676.84;5014277;28;20114;-78
2023/06/12 01:09:43;;;;;;;1999.90;999.90;;;;;;;17.26;100.00;97673.75;5014304;28;20076;-79
2023/06/12 01:12:11;;;;;;;1999.90;999.90;;;;;;;17.25;100.00;97672.94;4957322;28;20038;-79
2023/06/12 01:14:37;;;;;;;1999.90;999.90;;;;;;;17.23;100.00;97672.47;5013987;28;20030;-78
2023/06/12 01:17:03;;;;;;;1999.90;999.90;;;;;;;17.26;100.00;97680.06;4996497;28;20080;-79
2023/06/12 01:19:28;;;;;;;1999.90;999.90;;;;;;;17.23;100.00;97691.03;5014243;28;20022;-80
2023/06/12 01:21:59;;;;;;;1999.90;999.90;;;;;;;17.17;100.00;97684.09;5013484;28;20096;-79
2023/06/12 01:24:43;;;;;;;1999.90;999.90;;;;;;;17.20;100.00;97686.19;5013821;28;20033;-77
2023/06/12 01:27:27;;;;;;;1999.90;999.90;;;;;;;17.18;100.00;97685.72;4996163;28;20064;-77
2023/06/12 01:30:25;;;;;;;1999.90;999.90;;;;;;;17.22;100.00;97689.41;5014161;28;20026;-79
2023/06/12 01:32:52;;;;;;;1999.90;999.90;;;;;;;17.20;100.00;97675.13;5013688;28;20030;-77
2023/06/12 01:35:22;;;;;;;1999.90;999.90;;;;;;;17.29;100.00;97684.13;5013539;28;20045;-79
2023/06/12 01:37:50;;;;;;;1999.90;999.90;;;;;;;17.27;100.00;97678.91;5013721;28;20380;-79
2023/06/12 01:40:17;;;;;;;1999.90;999.90;;;;;;;17.30;100.00;97682.94;5013733;28;20026;-80
2023/06/12 01:42:42;;;;;;;1999.90;999.90;;;;;;;17.26;100.00;97671.75;5013736;28;20030;-79
2023/06/12 01:45:08;;;;;;;1999.90;999.90;;;;;;;17.33;100.00;97676.72;5013694;28;20037;-80
2023/06/12 01:47:34;;;;;;;1999.90;999.90;;;;;;;17.39;100.00;97664.28;5012977;28;20033;-79
2023/06/12 01:49:59;;;;;;;1999.90;999.90;;;;;;;17.40;100.00;97675.00;5013488;28;20033;-78
2023/06/12 01:52:26;;;;;;;1999.90;999.90;;;;;;;17.44;100.00;97666.81;5013242;28;20060;-78
2023/06/12 01:54:51;;;;;;;1999.90;999.90;;;;;;;17.39;100.00;97672.56;5013370;28;20483;-75
2023/06/12 01:57:20;;;;;;;1999.90;999.90;;;;;;;17.34;100.00;97661.75;4996951;28;20034;-79
2023/06/12 01:59:46;;;;;;;1999.90;999.90;;;;;;;17.36;100.00;97653.91;5010226;28;20383;-78
2023/06/12 02:02:12;;;;;;;1999.90;999.90;;;;;;;17.39;100.00;97659.56;4993904;28;20085;-77
2023/06/12 02:04:37;;;;;;;1999.90;999.90;;;;;;;17.45;100.00;97654.59;4993874;28;20034;-81
2023/06/12 02:07:04;;;;;;;1999.90;999.90;;;;;;;17.34;100.00;97659.00;4994034;28;20043;-78
2023/06/12 02:09:29;;;;;;;1999.90;999.90;;;;;;;17.37;100.00;97645.28;4976462;28;20121;-79
2023/06/12 02:11:54;;;;;;;1999.90;999.90;;;;;;;17.24;100.00;97645.63;4976250;28;20146;-80
2023/06/12 02:14:20;;;;;;;1999.90;999.90;;;;;;;17.25;100.00;97650.81;4993489;28;20034;-79
2023/06/12 02:16:45;;;;;;;1999.90;999.90;;;;;;;17.24;100.00;97648.38;4976032;28;20471;-79
2023/06/12 02:19:12;;;;;;;1999.90;999.90;;;;;;;17.31;100.00;97654.16;4976444;28;20531;-79
2023/06/12 02:21:37;;;;;;;1999.90;999.90;;;;;;;17.18;100.00;97644.25;4993904;28;20074;-81
2023/06/12 02:24:03;;;;;;;1999.90;999.90;;;;;;;17.11;100.00;97639.28;4976392;28;20058;-78
2023/06/12 02:26:28;;;;;;;1999.90;999.90;;;;;;;17.17;100.00;97653.69;4976062;28;20455;-81
2023/06/12 02:29:07;;;;;;;1999.90;999.90;;;;;;;17.16;100.00;97649.31;4993510;28;20038;-80
2023/06/12 02:31:32;;;;;;;1999.90;999.90;;;;;;;17.10;100.00;97649.53;4976465;28;20392;-81
2023/06/12 02:33:58;;;;;;;1999.90;999.90;;;;;;;17.13;100.00;97659.91;4992880;28;20045;-79
2023/06/12 02:36:23;;;;;;;1999.90;999.90;;;;;;;17.17;100.00;97648.16;4975441;28;20040;-79
2023/06/12 02:38:48;;;;;;;1999.90;999.90;;;;;;;17.25;100.00;97644.47;4975587;28;20069;-78
2023/06/12 02:41:14;;;;;;;1999.90;999.90;;;;;;;17.31;100.00;97643.91;4995109;28;20073;-78
2023/06/12 02:43:40;;;;;;;1999.90;999.90;;;;;;;17.25;100.00;97644.47;5005612;28;20038;-79
2023/06/12 02:46:05;;;;;;;1999.90;999.90;;;;;;;17.24;100.00;97637.31;4994770;28;20015;-78
2023/06/12 02:48:30;;;;;;;1999.90;999.90;;;;;;;17.26;100.00;97635.03;4993042;28;20487;-78
2023/06/12 02:50:55;;;;;;;1999.90;999.90;;;;;;;17.25;100.00;97644.47;4992602;28;20026;-79
2023/06/12 02:53:21;;;;;;;1999.90;999.90;;;;;;;17.17;100.00;97643.44;4992456;28;20050;-78
2023/06/12 02:55:46;;;;;;;1999.90;999.90;;;;;;;17.19;100.00;97659.69;4975379;28;20482;-79
2023/06/12 02:58:12;;;;;;;1999.90;999.90;;;;;;;17.11;100.00;97661.41;4991913;28;20041;-79
2023/06/12 03:00:37;;;;;;;1999.90;999.90;;;;;;;17.03;100.00;97649.31;4992998;28;20121;-79
2023/06/12 03:03:02;;;;;;;1999.90;999.90;;;;;;;17.03;100.00;97656.81;4975459;28;20034;-78
2023/06/12 03:05:28;;;;;;;1999.90;999.90;;;;;;;17.09;100.00;97659.00;4976320;28;20030;-80
2023/06/12 03:07:54;;;;;;;1999.90;999.90;;;;;;;17.08;100.00;97656.56;4992650;28;20046;-77
2023/06/12 03:10:20;;;;;;;1999.90;999.90;;;;;;;16.93;100.00;97654.47;4992627;28;20022;-77
2023/06/12 03:12:45;;;;;;;1999.90;999.90;;;;;;;16.93;100.00;97649.78;4974813;28;20096;-78
2023/06/12 03:15:14;;;;;;;1999.90;999.90;;;;;;;17.01;100.00;97657.13;4975107;28;20037;-77
2023/06/12 03:17:40;;;;;;;1999.90;999.90;;;;;;;16.95;100.00;97646.66;4992610;28;20037;-77
2023/06/12 03:20:06;;;;;;;1999.90;999.90;;;;;;;16.93;100.00;97647.00;4992765;28;20034;-77
2023/06/12 03:22:31;;;;;;;1999.90;999.90;;;;;;;16.96;100.00;97662.91;4992321;28;20033;-78
2023/06/12 03:24:57;;;;;;;1999.90;999.90;;;;;;;16.83;100.00;97655.72;4974954;28;20403;-79
2023/06/12 03:27:22;;;;;;;1999.90;999.90;;;;;;;16.92;100.00;97652.84;4992367;28;20495;-79
2023/06/12 03:29:48;;;;;;;1999.90;999.90;;;;;;;16.98;100.00;97657.81;4974730;28;20042;-78
2023/06/12 03:32:13;;;;;;;1999.90;999.90;;;;;;;17.01;100.00;97659.91;4992846;28;20387;-78
2023/06/12 03:34:38;;;;;;;1999.90;999.90;;;;;;;16.89;100.00;97656.31;4992065;28;20046;-78
2023/06/12 03:37:04;;;;;;;1999.90;999.90;;;;;;;17.02;100.00;97661.50;4992413;28;20114;-76
2023/06/12 03:39:29;;;;;;;1999.90;999.90;;;;;;;16.99;100.00;97658.63;4996728;28;20090;-79
2023/06/12 03:41:56;;;;;;;1999.90;999.90;;;;;;;16.96;100.00;97660.13;5000029;28;20030;-78
2023/06/12 03:44:22;;;;;;;1999.90;999.90;;;;;;;16.96;100.00;97664.84;4980939;28;20084;-78
2023/06/12 03:46:48;;;;;;;1999.90;999.90;;;;;;;17.01;100.00;97668.19;4998427;28;20035;-82
2023/06/12 03:49:13;;;;;;;1999.90;999.90;;;;;;;16.97;100.00;97670.03;4998455;28;20031;-80
2023/06/12 03:51:38;;;;;;;1999.90;999.90;;;;;;;16.97;100.00;97664.53;4997747;28;20026;-80
2023/06/12 03:54:05;;;;;;;1999.90;999.90;;;;;;;16.99;100.00;97656.69;4999111;28;20026;-81
2023/06/12 03:56:30;;;;;;;1999.90;999.90;;;;;;;16.99;100.00;97670.50;4977156;28;20633;-78
2023/06/12 03:58:55;;;;;;;1999.90;999.90;;;;;;;17.02;100.00;97671.75;4992677;28;20030;-80
2023/06/12 04:01:21;;;;;;;1999.90;999.90;;;;;;;16.94;100.00;97670.72;4992134;28;20388;-79
2023/06/12 04:03:48;;;;;;;1999.90;999.90;;;;;;;16.88;100.00;97669.34;4974025;28;20471;-81
2023/06/12 04:06:14;;;;;;;1999.90;999.90;;;;;;;16.93;100.00;97671.06;4991524;28;20510;-79
2023/06/12 04:08:40;;;;;;;1999.90;999.90;;;;;;;16.91;100.00;97668.66;4974319;28;20026;-82
2023/06/12 04:11:09;;;;;;;1999.90;999.90;;;;;;;17.05;100.00;97674.66;4992587;28;20058;-81
2023/06/12 04:13:34;;;;;;;1999.90;999.90;;;;;;;17.15;100.00;97684.44;4991424;28;20030;-80
2023/06/12 04:16:00;;;;;;;1999.90;999.90;;;;;;;17.16;100.00;97679.72;4991847;28;20529;-78
2023/06/12 04:18:25;;;;;;;1999.90;999.90;;;;;;;17.07;100.00;97675.09;4992027;28;20379;-78
2023/06/12 04:20:51;;;;;;;1999.90;999.90;;;;;;;17.17;100.00;97684.09;4975824;28;20027;-80
2023/06/12 04:23:17;;;;;;;1999.90;999.90;;;;;;;17.22;100.00;97689.41;4999133;28;20026;-83
2023/06/12 04:25:43;;;;;;;1999.90;999.90;;;;;;;17.03;100.00;97687.19;4979432;28;20092;-86
2023/06/12 04:28:13;;;;;;;1999.90;999.90;;;;;;;16.93;100.00;97691.22;5013208;28;20046;-85
2023/06/12 04:30:39;;;;;;;1999.90;999.90;;;;;;;17.02;100.00;97683.63;4998244;28;20018;-84
2023/06/12 04:33:04;;;;;;;1999.90;999.90;;;;;;;17.03;100.00;97688.00;4999264;28;20014;-86
2023/06/12 04:35:33;;;;;;;1999.90;999.90;;;;;;;17.07;100.00;97694.44;4998135;28;20050;-87
2023/06/12 04:37:59;;;;;;;1999.90;999.90;;;;;;;17.12;100.00;97704.47;5014325;28;20022;-86
2023/06/12 04:40:24;;;;;;;1999.90;999.90;;;;;;;17.20;100.00;97705.53;4993717;28;20121;-86
2023/06/12 04:42:56;;;;;;;1999.90;999.90;;;;;;;17.24;100.00;97706.44;5020066;28;20379;-86
2023/06/12 04:45:22;;;;;;;1999.90;999.90;;;;;;;17.21;100.00;97704.38;5032019;28;20030;-85
2023/06/12 04:47:47;;;;;;;1999.90;999.90;;;;;;;17.18;100.00;97705.06;5016924;28;20094;-88
2023/06/12 04:50:12;;;;;;;1999.90;999.90;;;;;;;17.11;100.00;97700.91;5010366;28;20053;-87
2023/06/12 04:52:39;;;;;;;1999.90;999.90;;;;;;;17.10;100.00;97698.50;5016466;28;20030;-84
2023/06/12 04:55:08;;;;;;;1999.90;999.90;;;;;;;17.03;100.00;97715.66;5034927;28;20034;-85
2023/06/12 04:57:36;;;;;;;1999.90;999.90;;;;;;;16.96;100.00;97717.34;5025940;28;20060;-84
2023/06/12 05:00:05;;;;;;;1999.90;999.90;;;;;;;16.81;100.00;97699.47;5022789;28;20168;-85
2023/06/12 05:02:33;;;;;;;1999.90;999.90;;;;;;;16.79;100.00;97710.06;4999775;28;20034;-82
2023/06/12 05:04:58;;;;;;;1999.90;999.90;;;;;;;16.68;100.00;97708.88;4993718;28;20026;-80
2023/06/12 05:07:24;;;;;;;1999.90;999.90;;;;;;;16.62;100.00;97707.50;4990401;28;20042;-79
2023/06/12 05:09:49;;;;;;;1999.90;999.90;;;;;;;16.69;100.00;97699.47;4990475;28;20110;-79
2023/06/12 05:12:15;;;;;;;1999.90;999.90;;;;;;;16.72;100.00;97704.31;4991992;28;20053;-85
2023/06/12 05:14:42;;;;;;;1999.90;999.90;;;;;;;16.84;100.00;97698.00;4969671;28;20497;-82
2023/06/12 05:17:08;;;;;;;1999.90;999.90;;;;;;;16.88;100.00;97696.97;4977195;28;20023;-84
2023/06/12 05:19:35;;;;;;;1999.90;999.90;;;;;;;16.99;100.00;97709.19;4977582;28;20492;-84
2023/06/12 05:22:01;;;;;;;1999.90;999.90;;;;;;;17.11;100.00;97700.91;4974926;28;20045;-84
2023/06/12 05:24:27;;;;;;;1999.90;999.90;;;;;;;17.22;100.00;97708.75;4976598;28;20106;-82
2023/06/12 05:26:52;;;;;;;1999.90;999.90;;;;;;;17.28;100.00;97710.13;4996763;28;20037;-83
2023/06/12 05:29:17;;;;;;;1999.90;999.90;;;;;;;17.40;100.00;97716.47;5007408;28;20030;-85
2023/06/12 05:31:43;;;;;;;1999.90;999.90;;;;;;;17.46;100.00;97723.41;5005674;28;20018;-83
2023/06/12 05:34:09;;;;;;;1999.90;999.90;;;;;;;17.56;100.00;97727.69;5004390;28;20504;-84
2023/06/12 05:36:35;;;;;;;1999.90;999.90;;;;;;;17.57;100.00;97718.25;4979844;28;20076;-83
2023/06/12 05:39:01;;;;;;;1999.90;999.90;;;;;;;17.62;100.00;97721.59;4995790;28;20017;-84
2023/06/12 05:41:26;;;;;;;1999.90;999.90;;;;;;;17.67;100.00;97717.75;4995414;28;20565;-85
2023/06/12 05:43:51;;;;;;;1999.90;999.90;;;;;;;17.71;100.00;97721.44;4996416;28;20018;-85
2023/06/12 05:46:17;;;;;;;1999.90;999.90;;;;;;;17.81;100.00;97734.00;4996605;28;20015;-84
2023/06/12 05:48:42;;;;;;;1999.90;999.90;;;;;;;17.71;100.00;97720.63;4995617;28;20060;-84
2023/06/12 05:51:08;;;;;;;1999.90;999.90;;;;;;;17.76;100.00;97729.50;5009964;28;20053;-83
2023/06/12 05:53:34;;;;;;;1999.90;999.90;;;;;;;17.90;100.00;97727.19;4994303;28;20038;-85
2023/06/12 05:56:00;;;;;;;1999.90;999.90;;;;;;;18.00;100.00;97742.53;4995140;28;20475;-83
2023/06/12 05:58:25;;;;;;;1999.90;999.90;;;;;;;18.00;100.00;97732.25;4995322;28;20038;-85
2023/06/12 06:00:52;;;;;;;1999.90;999.90;;;;;;;17.87;100.00;97750.03;5011431;28;20097;-81
2023/06/12 06:03:19;;;;;;;1999.90;999.90;;;;;;;17.83;100.00;97735.28;4996371;28;20026;-83
2023/06/12 06:05:45;;;;;;;1999.90;999.90;;;;;;;17.67;100.00;97736.34;5012359;28;20049;-86
2023/06/12 06:08:11;;;;;;;1999.90;999.90;;;;;;;17.85;100.00;97741.28;4995838;28;20092;-81
2023/06/12 06:10:36;;;;;;;1999.90;999.90;;;;;;;17.85;100.00;97741.28;4996660;28;20412;-81
2023/06/12 06:13:01;;;;;;;1999.90;999.90;;;;;;;18.08;100.00;97739.63;4996156;28;20485;-81
2023/06/12 06:15:27;;;;;;;1999.90;999.90;;;;;;;18.11;100.00;97738.09;4979007;28;20035;-83
2023/06/12 06:17:52;;;;;;;1999.90;999.90;;;;;;;18.13;100.00;97736.63;4996900;28;20921;-83
2023/06/12 06:20:17;;;;;;;1999.90;999.90;;;;;;;18.48;100.00;97744.34;4978525;28;20061;-83
2023/06/12 06:22:43;;;;;;;1999.90;999.90;;;;;;;18.59;100.00;97742.72;4997580;28;20019;-83
2023/06/12 06:25:09;;;;;;;1999.90;999.90;;;;;;;18.78;100.00;97751.19;4980180;28;20030;-86
2023/06/12 06:27:35;;;;;;;1999.90;999.90;;;;;;;19.00;100.00;97758.94;4996020;28;20026;-82
2023/06/12 06:30:00;;;;;;;1999.90;999.90;;;;;;;19.35;100.00;97758.25;4996528;28;20384;-84
2023/06/12 06:32:25;;;;;;;1999.90;999.90;;;;;;;19.34;100.00;97760.22;4996323;28;20031;-83
2023/06/12 06:34:51;;;;;;;1999.90;999.90;;;;;;;19.44;100.00;97762.50;4975893;28;20141;-80
2023/06/12 06:37:17;;;;;;;1999.90;999.90;;;;;;;19.46;100.00;97753.78;4975456;28;20033;-83
2023/06/12 06:39:42;;;;;;;1999.90;999.90;;;;;;;19.76;100.00;97763.28;4976838;28;20027;-84
2023/06/12 06:42:08;;;;;;;1999.90;999.90;;;;;;;19.78;100.00;97767.31;4977133;28;20042;-84
2023/06/12 06:44:34;;;;;;;1999.90;999.90;;;;;;;19.89;100.00;97764.75;4978023;28;20043;-84
2023/06/12 06:46:59;;;;;;;1999.90;999.90;;;;;;;20.22;100.00;97765.16;4975672;28;20037;-84
2023/06/12 06:49:26;;;;;;;1999.90;999.90;;;;;;;20.30;100.00;97766.13;4976814;28;20441;-81
2023/06/12 06:51:51;;;;;;;1999.90;999.90;;;;;;;20.29;100.00;97776.47;4976244;28;20046;-84
2023/06/12 06:54:16;;;;;;;1999.90;999.90;;;;;;;20.44;100.00;97765.66;4975850;28;20030;-82
2023/06/12 06:56:43;;;;;;;1999.90;999.90;;;;;;;20.44;100.00;97765.66;4975759;28;20043;-85
2023/06/12 06:59:08;;;;;;;1999.90;999.90;;;;;;;20.49;100.00;97765.34;4979544;28;20027;-82
2023/06/12 07:01:34;;;;;;;1999.90;999.90;;;;;;;20.26;100.00;97759.72;4991406;28;20034;-83
2023/06/12 07:04:00;;;;;;;1999.90;999.90;;;;;;;20.35;100.00;97753.94;4978406;28;20054;-83
2023/06/12 07:06:26;;;;;;;1999.90;999.90;;;;;;;20.40;100.00;97759.19;4975082;28;20035;-82
2023/06/12 07:08:51;;;;;;;1999.90;999.90;;;;;;;20.48;100.00;97767.34;4975541;28;20030;-84
2023/06/12 07:11:16;;;;;;;1999.90;999.90;;;;;;;20.68;100.00;97773.69;4975700;28;20401;-85
2023/06/12 07:13:42;;;;;;;1999.90;999.90;;;;;;;20.61;100.00;97763.22;4976960;28;20162;-85
2023/06/12 07:16:07;;;;;;;1999.90;999.90;;;;;;;20.68;100.00;97757.00;4979407;28;20082;-80
2023/06/12 07:18:33;;;;;;;1999.90;999.90;;;;;;;20.94;100.00;97768.28;4976373;28;20128;-82
2023/06/12 07:20:58;;;;;;;1999.90;999.90;;;;;;;21.23;100.00;97762.13;4974300;28;20465;-83
2023/06/12 07:23:23;;;;;;;1999.90;999.90;;;;;;;21.59;100.00;97760.75;4974459;28;20038;-83
2023/06/12 07:25:49;;;;;;;1999.90;999.90;;;;;;;21.88;100.00;97762.88;4976170;28;20109;-85
2023/06/12 07:28:14;;;;;;;1999.90;999.90;;;;;;;21.96;100.00;97766.53;4977575;28;20544;-83
2023/06/12 07:30:40;;;;;;;1999.90;999.90;;;;;;;21.84;95.08;97772.28;4978478;28;20027;-83
2023/06/12 07:33:05;;;;;;;1999.90;999.90;;;;;;;21.73;96.97;97754.63;4976918;28;20027;-84
2023/06/12 07:35:30;;;;;;;1999.90;999.90;;;;;;;22.27;89.67;97760.63;4998519;28;20423;-83
2023/06/12 07:37:56;;;;;;;1999.90;999.90;;;;;;;21.73;91.11;97762.97;4997610;28;20535;-82
2023/06/12 07:40:21;;;;;;;1999.90;999.90;;;;;;;21.93;88.54;97770.06;4994467;28;20116;-82
2023/06/12 07:42:46;;;;;;;1999.90;999.90;;;;;;;21.90;90.69;97761.69;4963661;28;20173;-86
2023/06/12 07:45:12;;;;;;;1999.90;999.90;;;;;;;21.95;88.62;97764.16;4996674;28;20491;-81
2023/06/12 07:47:37;;;;;;;1999.90;999.90;;;;;;;21.62;88.47;97759.19;4997702;28;20030;-85
2023/06/12 07:50:03;;;;;;;1999.90;999.90;;;;;;;21.23;87.55;97753.78;4980900;28;20061;-86
2023/06/12 07:52:30;;;;;;;1999.90;999.90;;;;;;;22.27;83.79;97762.66;4999309;28;20476;-84
2023/06/12 07:54:56;;;;;;;1999.90;999.90;;;;;;;22.40;80.75;97764.00;4980923;28;20034;-83
2023/06/12 07:57:21;;;;;;;1999.90;999.90;;;;;;;22.84;80.99;97759.44;4996646;28;20077;-82
2023/06/12 07:59:48;;;;;;;1999.90;999.90;;;;;;;22.78;79.99;97755.38;4983258;28;20022;-84
2023/06/12 08:02:13;;;;;;;1999.90;999.90;;;;;;;23.77;76.00;97755.63;5020165;28;20076;-84
2023/06/12 08:04:40;;;;;;;1999.90;999.90;;;;;;;25.09;68.21;97764.41;5000206;28;20117;-85
2023/06/12 08:07:10;;;;;;;1999.90;999.90;;;;;;;25.38;65.92;97768.06;5001305;28;20030;-80
2023/06/12 08:09:36;;;;;;;1999.90;999.90;;;;;;;24.81;64.94;97764.28;5015739;28;20023;-84
2023/06/12 08:12:01;;;;;;;1999.90;999.90;;;;;;;25.90;61.92;97775.78;5000038;28;20388;-86
2023/06/12 08:14:27;;;;;;;1999.90;999.90;;;;;;;24.57;65.92;97770.53;4981379;28;20042;-85
2023/06/12 08:16:52;;;;;;;1999.90;999.90;;;;;;;24.38;67.53;97768.84;4997408;28;20042;-82
2023/06/12 08:19:17;;;;;;;1999.90;999.90;;;;;;;23.95;70.10;97768.53;5003068;28;20058;-85
2023/06/12 08:21:43;;;;;;;1999.90;999.90;;;;;;;24.02;69.83;97756.63;4983041;28;20035;-84
2023/06/12 08:24:09;;;;;;;1999.90;999.90;;;;;;;24.05;71.67;97767.00;4981215;28;20030;-83
2023/06/12 08:26:34;;;;;;;1999.90;999.90;;;;;;;24.31;70.03;97764.00;4985765;28;20400;-83
2023/06/12 08:29:00;;;;;;;1999.90;999.90;;;;;;;26.07;60.82;97768.53;4982822;28;20057;-83
2023/06/12 08:31:25;;;;;;;1999.90;999.90;;;;;;;26.08;59.53;97770.16;4979802;28;20023;-81
2023/06/12 08:33:51;;;;;;;1999.90;999.90;;;;;;;28.60;51.77;97779.59;4983107;28;20050;-83
2023/06/12 08:36:16;;;;;;;1999.90;999.90;;;;;;;29.34;48.66;97775.13;4960732;28;20023;-81
2023/06/12 08:38:41;;;;;;;1999.90;999.90;;;;;;;28.53;50.30;97770.44;4964025;28;20022;-84
2023/06/12 08:41:07;;;;;;;1999.90;999.90;;;;;;;28.70;48.33;97769.47;4979839;28;20276;-82
2023/06/12 08:43:33;;;;;;;1999.90;999.90;;;;;;;28.33;50.03;97761.81;4982961;28;20050;-86
2023/06/12 08:46:03;;;;;;;1999.90;999.90;;;;;;;27.32;53.65;97762.16;4978829;28;20074;-82
2023/06/12 08:48:28;;;;;;;1999.90;999.90;;;;;;;27.21;53.14;97758.63;4978958;28;20031;-84
2023/06/12 08:50:54;;;;;;;1999.90;999.90;;;;;;;28.88;48.63;97763.66;4962254;28;20070;-84
2023/06/12 08:53:20;;;;;;;1999.90;999.90;;;;;;;31.28;41.77;97776.56;4961983;28;20026;-84
2023/06/12 08:55:46;;;;;;;1999.90;999.90;;;;;;;30.82;42.54;97756.94;4958959;28;20038;-83
2023/06/12 08:58:11;;;;;;;1999.90;999.90;;;;;;;30.05;44.26;97769.22;4978457;28;20050;-82
2023/06/12 09:00:37;;;;;;;1999.90;999.90;;;;;;;28.75;47.79;97769.03;4966737;28;20094;-82
2023/06/12 09:03:06;;;;;;;1999.90;999.90;;;;;;;27.99;49.59;97755.25;4988794;28;20031;-83
2023/06/12 09:05:37;;;;;;;1999.90;999.90;;;;;;;27.50;52.21;97743.19;4974403;28;20030;-83
2023/06/12 09:08:04;;;;;;;1999.90;999.90;;;;;;;27.06;53.17;97745.84;4985622;28;20031;-83
2023/06/12 09:10:31;;;;;;;1999.90;999.90;;;;;;;25.46;56.18;97734.09;4995511;28;20007;-82
2023/06/12 09:12:57;;;;;;;1999.90;999.90;;;;;;;24.51;61.01;97740.16;4971567;28;20026;-83
2023/06/12 09:15:24;;;;;;;1999.90;999.90;;;;;;;24.13;63.36;97735.13;4972752;28;20030;-85
2023/06/12 09:17:52;;;;;;;1999.90;999.90;;;;;;;24.74;60.26;97733.47;4990437;28;20029;-82
2023/06/12 09:20:33;;;;;;;1999.90;999.90;;;;;;;24.38;61.16;97730.50;4990747;28;20046;-85
2023/06/12 09:23:04;;;;;;;1999.90;999.90;;;;;;;25.24;60.98;97726.84;4991218;28;20027;-84
2023/06/12 09:25:42;;;;;;;1999.90;999.90;;;;;;;26.89;53.00;97730.69;4989960;28;20030;-84
2023/06/12 09:28:09;;;;;;;1999.90;999.90;;;;;;;26.92;50.62;97729.06;4989632;28;20401;-82
2023/06/12 09:30:41;;;;;;;1999.90;999.90;;;;;;;24.49;58.28;97720.19;4989263;28;20031;-84
2023/06/12 09:33:08;;;;;;;1999.90;999.90;;;;;;;23.34;65.48;97712.50;4992055;28;20037;-85
2023/06/12 09:35:48;;;;;;;1999.90;999.90;;;;;;;23.16;64.60;97715.13;4992381;28;20057;-84
2023/06/12 09:38:14;;;;;;;1999.90;999.90;;;;;;;23.97;62.84;97718.63;4992898;28;20038;-85
2023/06/12 09:40:40;;;;;;;1999.90;999.90;;;;;;;24.90;62.42;97717.16;4992069;28;20028;-85
2023/06/12 09:43:06;;;;;;;1999.90;999.90;;;;;;;25.47;57.13;97718.06;4973170;28;20094;-83
2023/06/12 09:45:31;;;;;;;1999.90;999.90;;;;;;;25.24;58.04;97720.44;4990651;28;20058;-85
2023/06/12 09:47:56;;;;;;;1999.90;999.90;;;;;;;23.97;66.65;97717.81;4973406;28;20034;-84
2023/06/12 09:50:23;;;;;;;1999.90;999.90;;;;;;;23.39;68.78;97718.59;4989537;28;20034;-85
2023/06/12 09:52:49;;;;;;;1999.90;999.90;;;;;;;23.83;68.21;97709.38;4972853;28;20054;-85
2023/06/12 09:55:16;;;;;;;1999.90;999.90;;;;;;;24.57;65.82;97709.00;4988165;28;20034;-84
2023/06/12 09:57:50;;;;;;;1999.90;999.90;;;;;;;26.14;56.89;97706.03;4988143;28;20157;-85
2023/06/12 10:00:16;;;;;;;1999.90;999.90;;;;;;;26.86;53.10;97727.88;4988323;28;20058;-85
2023/06/12 10:03:05;;;;;;;1999.90;999.90;;;;;;;26.52;54.14;97722.78;4972301;28;20031;-83
2023/06/12 10:05:35;;;;;;;1999.90;999.90;;;;;;;26.72;50.12;97713.91;4984790;28;20547;-83
2023/06/12 10:08:03;;;;;;;1999.90;999.90;;;;;;;26.77;52.28;97714.28;4984009;28;20114;-86
2023/06/12 10:10:30;;;;;;;1999.90;999.90;;;;;;;25.55;54.52;97709.31;4987327;28;20111;-85
2023/06/12 10:12:56;;;;;;;1999.90;999.90;;;;;;;25.56;55.88;97710.88;4971903;28;20051;-85
2023/06/12 10:15:22;;;;;;;1999.90;999.90;;;;;;;25.46;57.03;97700.47;4970019;28;20500;-85
2023/06/12 10:17:51;;;;;;;1999.90;999.90;;;;;;;25.59;57.60;97711.31;4969880;28;20049;-82
2023/06/12 10:20:18;;;;;;;1999.90;999.90;;;;;;;26.94;52.77;97716.22;4988513;28;20031;-83
2023/06/12 10:22:45;;;;;;;1999.90;999.90;;;;;;;26.06;56.72;97699.66;4987647;28;20023;-83
2023/06/12 10:25:11;;;;;;;1999.90;999.90;;;;;;;25.39;59.81;97697.66;4988846;28;20023;-84
2023/06/12 10:27:38;;;;;;;1999.90;999.90;;;;;;;25.39;60.80;97694.84;4972353;28;20027;-82
2023/06/12 10:30:04;;;;;;;1999.90;999.90;;;;;;;25.23;60.83;97694.44;4988986;28;20031;-84
2023/06/12 10:32:31;;;;;;;1999.90;999.90;;;;;;;25.38;60.08;97698.03;4990921;28;20026;-84
2023/06/12 10:34:57;;;;;;;1999.90;999.90;;;;;;;25.21;62.01;97696.84;4992598;28;20051;-83
2023/06/12 10:37:28;;;;;;;1999.90;999.90;;;;;;;25.40;60.43;97696.47;4990296;28;20058;-85
2023/06/12 10:40:12;;;;;;;1999.90;999.90;;;;;;;25.17;59.18;97693.22;4989048;28;20031;-88
2023/06/12 10:42:48;;;;;;;1999.90;999.90;;;;;;;25.11;58.42;97692.00;4990600;28;20027;-88
2023/06/12 10:45:15;;;;;;;1999.90;999.90;;;;;;;25.38;57.33;97681.22;4990274;28;20129;-85
2023/06/12 10:47:41;;;;;;;1999.90;999.90;;;;;;;24.56;58.32;97696.22;4989763;28;20027;-85